Izmir/Adnan Menderes Airport

Airport
ICAO code: 
LTBJ
IATA Code: 
ADB
Summary
ICAO Region: 
EUR
Territory: 
Location: 
Izmir,
Serving: 
Izmir
Elevation: 
412 ft
Coordinates: 
Aerial View: 
38° 17' 36.929" N, 27° 9' 7.518" E
Metar
Observation
LTBJ 290520Z 18015KT 9999 FEW030 SCT100 BKN200 22/11 Q1007 NOSIG
Station
Izmir / Adnan Menderes
Date/Time
2021-11-29 05:20:00
Wind direction
180°
Wind speed
15 kts
Lowest cloud amount
few clouds
Temperature
22°C
Dew point
11°C
Humidity
49%
QNH
1007 hPa
Weather condition
n/a

Runways

Designator Length Width Surface Rops
16L/34R 3240 45 ASP Yes/Yes
16R/34L 3240 45 CON Yes/Yes
Airport map: 
Aerial View: 

SKYbrary Partners:

Safety knowledge contributed by: